Time;durP1;ratioP1;P1;durP2;ratioP2;P2;SDS_P1;SDS_P2;PMS_P1;PMS_P2;Temp;Humidity;BMP_temperature;BMP_pressure;BME280_temperature;BME280_humidity;BME280_pressure;Samples;Min_cycle;Max_cycle;Signal;HPM_P1;HPM_P2
2023/10/19 00:01:58;;;;;;;28.00;15.57;;;;;;;-3.37;100.00;98893.00;5015347;28;20037;-63
2023/10/19 00:04:25;;;;;;;29.05;16.02;;;;;;;-3.06;100.00;98943.97;5015183;28;20058;-63
2023/10/19 00:06:55;;;;;;;29.42;15.98;;;;;;;-3.04;100.00;98944.66;5015986;28;20065;-63
2023/10/19 00:09:22;;;;;;;24.77;15.38;;;;;;;-2.52;100.00;99022.03;5015575;28;20041;-62
2023/10/19 00:11:51;;;;;;;31.00;16.23;;;;;;;-3.02;100.00;98952.44;5015641;28;20042;-63
2023/10/19 00:14:18;;;;;;;27.30;16.00;;;;;;;-3.12;100.00;98920.81;5015296;28;20038;-63
2023/10/19 00:16:53;;;;;;;25.92;15.75;;;;;;;-3.46;100.00;98878.78;5014936;28;20058;-63
2023/10/19 00:19:20;;;;;;;30.10;16.65;;;;;;;-4.04;100.00;98776.56;5015668;28;20038;-63
2023/10/19 00:21:50;;;;;;;30.75;16.02;;;;;;;-3.91;100.00;98789.59;5015227;28;20061;-63
2023/10/19 00:24:19;;;;;;;32.97;15.05;;;;;;;-4.09;100.00;98756.94;5015181;28;20098;-63
2023/10/19 00:26:48;;;;;;;33.17;16.98;;;;;;;-4.89;100.00;98616.34;5014591;28;20034;-64
2023/10/19 00:29:39;;;;;;;28.17;15.23;;;;;;;-5.51;100.00;98514.63;5014973;28;20163;-63
2023/10/19 00:32:14;;;;;;;30.40;15.27;;;;;;;-5.87;100.00;98456.31;5014835;28;20093;-63
2023/10/19 00:34:46;;;;;;;33.47;16.52;;;;;;;-5.82;100.00;98455.97;4998069;28;20034;-64
2023/10/19 00:37:18;;;;;;;33.75;16.25;;;;;;;-5.75;100.00;98471.06;5016886;28;20041;-63
2023/10/19 00:39:53;;;;;;;31.02;17.13;;;;;;;-5.80;100.00;98448.84;5034323;28;20029;-64
2023/10/19 00:42:24;;;;;;;34.15;16.80;;;;;;;-5.30;100.00;98530.50;5034593;28;20034;-63
2023/10/19 00:44:51;;;;;;;30.27;16.90;;;;;;;-5.38;100.00;98504.94;5034709;28;20026;-63
2023/10/19 00:47:23;;;;;;;28.17;15.20;;;;;;;-5.35;100.00;98504.72;5017493;28;20105;-63
2023/10/19 00:49:51;;;;;;;31.35;16.10;;;;;;;-5.41;100.00;98501.75;5034274;28;20040;-63
2023/10/19 00:52:24;;;;;;;26.38;15.68;;;;;;;-6.06;100.00;98396.75;5034276;28;20106;-63
2023/10/19 00:54:54;;;;;;;28.48;15.95;;;;;;;-6.24;100.00;98367.63;5034795;28;20029;-63
2023/10/19 00:57:33;;;;;;;29.27;15.57;;;;;;;-6.20;100.00;98363.84;5034665;28;20065;-63
2023/10/19 01:00:21;;;;;;;32.20;16.25;;;;;;;-6.18;100.00;98361.13;5033973;28;20041;-64
2023/10/19 01:02:51;;;;;;;32.50;15.45;;;;;;;-6.20;100.00;98360.41;5034751;28;20034;-63
2023/10/19 01:05:21;;;;;;;24.98;16.02;;;;;;;-6.26;100.00;98346.03;5034395;28;20094;-64
2023/10/19 01:07:57;;;;;;;29.23;15.25;;;;;;;-7.12;100.00;98208.00;5034802;28;20042;-63
2023/10/19 01:10:24;;;;;;;30.75;15.82;;;;;;;-7.68;100.00;98116.53;5033559;28;20041;-63
2023/10/19 01:12:51;;;;;;;31.42;15.45;;;;;;;-7.33;100.00;98157.44;5034915;28;20105;-63
2023/10/19 01:17:56;;;;;;;27.48;15.23;;;;;;;-8.00;100.00;98045.97;5033700;28;20030;-63
2023/10/19 01:25:58;;;;;;;25.35;15.77;;;;;;;-9.87;100.00;97745.50;5037731;28;20034;-62
2023/10/19 01:31:17;;;;;;;35.38;15.80;;;;;;;-8.97;100.00;97865.59;5037797;28;20056;-64
2023/10/19 01:33:44;;;;;;;27.77;15.05;;;;;;;-9.61;100.00;97777.44;5037643;28;20053;-62
2023/10/19 01:36:12;;;;;;;26.88;14.90;;;;;;;-10.48;100.00;97623.53;5037867;28;20025;-63
2023/10/19 01:38:39;;;;;;;28.20;15.63;;;;;;;-10.14;100.00;97680.81;5023354;28;20069;-64
2023/10/19 01:41:14;;;;;;;41.92;16.92;;;;;;;-10.50;100.00;97622.81;5017512;28;20031;-63
2023/10/19 01:43:46;;;;;;;33.80;16.33;;;;;;;-10.98;100.00;97539.72;5017683;28;20062;-64
2023/10/19 01:46:25;;;;;;;33.45;16.48;;;;;;;-10.18;100.00;97653.47;5018060;28;20067;-63
2023/10/19 01:48:56;;;;;;;34.67;16.65;;;;;;;-9.45;100.00;97761.63;5017305;28;20074;-64
2023/10/19 01:51:26;;;;;;;30.50;16.10;;;;;;;-9.60;100.00;97740.16;5018411;28;20034;-64
2023/10/19 01:53:57;;;;;;;36.38;15.90;;;;;;;-11.60;100.00;97397.28;5017663;28;20034;-64
2023/10/19 01:56:24;;;;;;;26.30;15.85;;;;;;;-11.11;100.00;97475.94;5017649;28;20102;-64
2023/10/19 01:58:54;;;;;;;34.30;15.63;;;;;;;-9.51;100.00;97730.91;5018241;28;20032;-64
2023/10/19 02:01:28;;;;;;;27.38;16.30;;;;;;;-8.53;100.00;97895.41;5017569;28;20030;-63
2023/10/19 02:04:00;;;;;;;32.20;15.68;;;;;;;-8.75;100.00;97864.06;5017429;28;20094;-63
2023/10/19 02:07:23;;;;;;;32.97;16.20;;;;;;;-8.55;100.00;97887.69;5017803;28;20069;-63
2023/10/19 02:09:51;;;;;;;33.20;16.88;;;;;;;-9.11;100.00;97785.22;5016274;28;20034;-63
2023/10/19 02:12:19;;;;;;;33.67;16.35;;;;;;;-8.88;100.00;97827.75;5017275;28;20061;-63
2023/10/19 02:14:46;;;;;;;33.88;16.08;;;;;;;-9.21;100.00;97779.84;5017348;28;20110;-63
2023/10/19 02:17:14;;;;;;;34.92;16.33;;;;;;;-9.18;100.00;97766.66;5018314;28;20137;-63
2023/10/19 02:19:42;;;;;;;27.58;15.82;;;;;;;-6.93;100.00;98135.38;5017408;28;20081;-63
2023/10/19 02:22:11;;;;;;;31.77;15.75;;;;;;;-7.80;100.00;97998.53;5016462;28;20046;-63
2023/10/19 02:24:39;;;;;;;32.72;17.73;;;;;;;-8.40;100.00;97897.94;5017031;28;20126;-64
2023/10/19 02:27:05;;;;;;;29.17;16.67;;;;;;;-7.56;100.00;98044.53;4999451;28;20038;-63
2023/10/19 02:29:38;;;;;;;30.75;16.92;;;;;;;-9.24;100.00;97751.50;5016594;28;20034;-63
2023/10/19 02:32:05;;;;;;;36.17;18.35;;;;;;;-10.63;100.00;97523.53;5015455;28;20085;-63
2023/10/19 02:34:32;;;;;;;33.72;17.17;;;;;;;-9.69;100.00;97670.75;5017184;28;20081;-64
2023/10/19 02:36:59;;;;;;;33.63;16.80;;;;;;;-11.53;100.00;97383.00;5016769;28;20026;-64
2023/10/19 02:39:28;;;;;;;32.22;17.00;;;;;;;-12.55;100.00;97197.00;5029187;28;20038;-63
2023/10/19 02:41:55;;;;;;;41.63;17.13;;;;;;;-11.79;100.00;97312.41;5036159;28;20030;-64
2023/10/19 02:44:23;;;;;;;33.22;17.52;;;;;;;-10.29;100.00;97573.84;5036190;28;20034;-63
2023/10/19 02:47:05;;;;;;;33.72;17.50;;;;;;;-11.27;100.00;97407.13;5035724;28;20081;-64
2023/10/19 02:49:38;;;;;;;33.25;17.05;;;;;;;-11.47;100.00;97372.25;5035930;28;20060;-64
2023/10/19 02:52:05;;;;;;;33.67;17.95;;;;;;;-10.84;100.00;97468.03;5035968;28;20057;-64
2023/10/19 02:54:34;;;;;;;33.95;16.70;;;;;;;-10.19;100.00;97570.63;5018373;28;20041;-64
2023/10/19 02:57:06;;;;;;;35.42;18.05;;;;;;;-10.11;100.00;97587.28;5036069;28;20030;-63
2023/10/19 02:59:33;;;;;;;27.10;14.80;;;;;;;-9.82;100.00;97616.34;5035725;28;20049;-63
2023/10/19 03:02:01;;;;;;;37.97;18.83;;;;;;;-10.64;100.00;97483.03;5035915;28;20029;-63
2023/10/19 03:04:29;;;;;;;34.75;18.40;;;;;;;-10.56;100.00;97488.50;5035697;28;20030;-64
2023/10/19 03:06:56;;;;;;;30.30;17.63;;;;;;;-13.03;100.00;97088.34;5036037;28;20101;-64
2023/10/19 03:09:28;;;;;;;35.47;17.33;;;;;;;-13.01;100.00;97086.47;5035679;28;20077;-64
2023/10/19 03:11:59;;;;;;;;;;;;;;;-11.86;100.00;97263.78;5036580;28;20029;-64
2023/10/19 03:14:26;;;;;;;33.40;17.27;;;;;;;-11.95;100.00;97258.31;5034905;28;19971;-63
2023/10/19 03:16:56;;;;;;;35.25;19.10;;;;;;;-10.95;100.00;97404.88;5033022;28;20045;-63
2023/10/19 03:19:26;;;;;;;36.83;18.73;;;;;;;-10.80;100.00;97443.59;5033136;28;20347;-63
2023/10/19 03:21:55;;;;;;;32.83;16.90;;;;;;;-11.95;100.00;97245.41;5033386;28;20050;-62
2023/10/19 03:24:40;;;;;;;32.33;18.35;;;;;;;-11.28;100.00;97345.94;5032887;28;20061;-62
2023/10/19 03:27:21;;;;;;;33.85;17.58;;;;;;;-9.85;100.00;97571.63;5033308;28;20050;-63
2023/10/19 03:29:55;;;;;;;39.53;19.25;;;;;;;-10.94;100.00;97398.78;5032000;28;20045;-63
2023/10/19 03:32:26;;;;;;;35.53;18.92;;;;;;;-11.48;100.00;97298.19;5031498;28;20065;-62
2023/10/19 03:34:56;;;;;;;41.58;20.02;;;;;;;-11.52;100.00;97299.31;5033647;28;20042;-63
2023/10/19 03:37:25;;;;;;;32.78;16.95;;;;;;;-12.44;100.00;97153.19;5029315;28;20049;-62
2023/10/19 03:39:55;;;;;;;33.75;18.05;;;;;;;-12.51;100.00;97126.13;5012423;28;20058;-62
2023/10/19 03:42:26;;;;;;;34.42;18.23;;;;;;;-11.84;100.00;97238.66;5012840;28;20064;-62
2023/10/19 03:44:57;;;;;;;36.15;19.45;;;;;;;-12.26;100.00;97163.97;5013503;28;20042;-63
2023/10/19 03:47:33;;;;;;;24.30;13.75;;;;;;;-9.71;100.00;97566.28;5014396;28;20050;-64
2023/10/19 03:50:07;;;;;;;38.63;19.63;;;;;;;-9.44;100.00;97606.72;5014142;28;20046;-64
2023/10/19 03:52:37;;;;;;;35.75;20.48;;;;;;;-8.47;100.00;97764.13;5014264;28;21661;-63
2023/10/19 03:55:11;;;;;;;35.22;20.30;;;;;;;-8.45;100.00;97755.28;5013054;28;20088;-64
2023/10/19 03:57:50;;;;;;;41.20;20.50;;;;;;;-8.61;100.00;97733.97;5013845;28;20036;-63
2023/10/19 04:00:19;;;;;;;36.63;19.52;;;;;;;-9.08;100.00;97687.16;5013841;28;20053;-63
2023/10/19 04:02:46;;;;;;;36.53;19.35;;;;;;;-10.00;100.00;97519.09;5013695;28;20042;-63
2023/10/19 04:05:21;;;;;;;34.70;19.08;;;;;;;-9.88;100.00;97536.38;5014686;28;20061;-64
2023/10/19 04:07:55;;;;;;;38.75;20.02;;;;;;;-10.67;100.00;97413.31;5013853;28;20073;-63
2023/10/19 04:13:02;;;;;;;38.00;20.13;;;;;;;-18.35;100.00;96171.34;5013463;28;20113;-63
2023/10/19 04:15:29;;;;;;;33.63;18.42;;;;;;;-16.02;100.00;96530.72;5012574;28;20070;-63
2023/10/19 04:17:58;;;;;;;40.83;21.15;;;;;;;-18.11;100.00;96180.97;5012312;28;20042;-64
2023/10/19 04:22:53;;;;;;;36.22;20.10;;;;;;;-16.16;100.00;96492.28;5013320;28;20081;-63
2023/10/19 04:25:20;;;;;;;42.28;20.70;;;;;;;-14.74;100.00;96723.66;5012980;28;20061;-63
2023/10/19 04:27:48;;;;;;;38.08;21.23;;;;;;;-14.58;100.00;96742.31;5013934;28;20042;-63
2023/10/19 04:30:17;;;;;;;42.60;21.05;;;;;;;-13.82;100.00;96865.88;5013352;28;20042;-63
2023/10/19 04:32:45;;;;;;;32.55;19.75;;;;;;;-12.46;100.00;97076.75;5014530;28;20026;-63
2023/10/19 04:35:22;;;;;;;41.67;19.85;;;;;;;-12.54;100.00;97056.63;5012950;28;20050;-64
2023/10/19 04:37:50;;;;;;;40.47;21.52;;;;;;;-12.28;100.00;97095.28;5020502;28;20046;-68
2023/10/19 04:40:21;;;;;;;37.08;21.15;;;;;;;-12.43;100.00;97072.19;5015413;28;20072;-68
2023/10/19 04:42:50;;;;;;;40.22;17.08;;;;;;;-14.85;100.00;96690.94;5032429;28;20100;-69
2023/10/19 04:45:17;;;;;;;38.38;19.50;;;;;;;-18.63;100.00;96077.66;5015339;28;20076;-69
2023/10/19 04:47:44;;;;;;;37.00;21.33;;;;;;;-19.54;100.00;95929.16;5033583;28;20128;-68
2023/10/19 04:50:10;;;;;;;37.83;20.63;;;;;;;-17.45;100.00;96254.44;5034016;28;20045;-68
2023/10/19 04:52:38;;;;;;;41.17;21.15;;;;;;;-17.20;100.00;96297.22;5033444;28;20046;-68
2023/10/19 04:55:05;;;;;;;41.05;21.35;;;;;;;-14.07;100.00;96802.31;5031792;28;20088;-68
2023/10/19 04:57:34;;;;;;;35.55;19.75;;;;;;;-17.51;100.00;96244.59;5032805;28;20064;-68
2023/10/19 05:00:03;;;;;;;50.58;20.58;;;;;;;-16.62;100.00;96397.78;5032942;28;20089;-68
2023/10/19 05:02:29;;;;;;;38.10;20.67;;;;;;;-18.89;100.00;96015.41;5030089;28;20421;-68
2023/10/19 05:04:56;;;;;;;40.67;22.45;;;;;;;-17.16;100.00;96301.22;5031479;28;20041;-67
2023/10/19 05:07:23;;;;;;;39.80;20.27;;;;;;;-23.01;100.00;95350.16;5031457;28;20050;-67
2023/10/19 05:09:49;;;;;;;37.92;22.10;;;;;;;-16.09;100.00;96461.00;5030107;28;20108;-68
2023/10/19 05:12:16;;;;;;;38.92;21.48;;;;;;;-22.27;100.00;95471.88;5031178;28;20045;-67
2023/10/19 05:14:43;;;;;;;38.40;21.13;;;;;;;-28.98;100.00;94405.69;5031168;28;20054;-68
2023/10/19 05:17:10;;;;;;;43.25;21.85;;;;;;;-40.71;100.00;92547.66;5003243;28;20037;-69
2023/10/19 05:19:38;;;;;;;39.88;22.77;;;;;;;-41.00;100.00;92500.44;5022117;28;20084;-68
2023/10/19 05:22:09;;;;;;;42.08;21.65;;;;;;;-42.34;100.00;92279.63;5013715;28;20057;-69
2023/10/19 05:24:36;;;;;;;;;;;;;;;-149.70;100.00;76705.03;5029827;28;20064;-68
2023/10/19 05:27:03;;;;;;;40.45;22.15;;;;;;;-149.70;100.00;76725.34;5027430;28;19921;-67
2023/10/19 05:29:33;;;;;;;42.72;23.02;;;;;;;-149.70;100.00;76735.53;5029268;28;20045;-67
2023/10/19 05:32:01;;;;;;;45.28;22.75;;;;;;;-149.70;100.00;76743.66;5030594;28;20066;-67
2023/10/19 05:34:37;;;;;;;47.42;22.35;;;;;;;-149.70;100.00;76757.91;5031131;28;20046;-67
2023/10/19 05:37:05;;;;;;;47.50;23.02;;;;;;;-149.70;100.00;76761.97;5027959;28;20050;-67
2023/10/19 05:39:33;;;;;;;37.80;22.88;;;;;;;-149.70;100.00;76772.13;5011410;28;20035;-68
2023/10/19 05:42:00;;;;;;;43.50;23.80;;;;;;;-149.70;100.00;76776.19;5010677;28;20061;-67
2023/10/19 05:44:31;;;;;;;44.08;25.35;;;;;;;-149.70;100.00;76792.47;5009463;28;20098;-68
2023/10/19 05:46:59;;;;;;;42.25;24.88;;;;;;;-149.70;100.00;76812.78;5008341;28;20046;-68
2023/10/19 05:49:28;;;;;;;45.58;24.48;;;;;;;-149.70;100.00;76808.72;5009957;28;20046;-67
2023/10/19 05:51:56;;;;;;;44.28;26.30;;;;;;;-149.70;100.00;76825.00;5011136;28;20069;-67
2023/10/19 05:54:23;;;;;;;59.33;27.35;;;;;;;-149.70;100.00;76827.03;5011066;28;20053;-68
2023/10/19 05:56:51;;;;;;;50.75;27.98;;;;;;;-149.70;100.00;76829.06;5012298;28;20038;-67
2023/10/19 05:59:18;;;;;;;48.53;27.33;;;;;;;-149.70;100.00;76837.19;5013461;28;20046;-68
2023/10/19 06:01:46;;;;;;;50.13;28.10;;;;;;;-149.70;100.00;76843.31;5013837;28;20030;-68
2023/10/19 06:04:13;;;;;;;46.28;27.17;;;;;;;-149.70;100.00;76849.41;5015044;28;20035;-68
2023/10/19 06:06:42;;;;;;;46.85;25.92;;;;;;;-149.70;100.00;76857.53;5014834;28;20081;-67
2023/10/19 06:09:09;;;;;;;52.25;28.75;;;;;;;-149.70;100.00;76863.63;5017239;28;21026;-68
2023/10/19 06:11:37;;;;;;;57.85;29.80;;;;;;;-149.70;100.00;76867.69;5017329;28;20054;-66
2023/10/19 06:14:07;;;;;;;51.28;29.13;;;;;;;-149.70;100.00;76857.53;5017239;28;20042;-66
2023/10/19 06:16:34;;;;;;;57.38;30.35;;;;;;;-149.70;100.00;76857.53;5017567;28;20034;-66
2023/10/19 06:19:01;;;;;;;60.95;29.52;;;;;;;-149.70;100.00;76853.47;5017475;28;20065;-65
2023/10/19 06:21:30;;;;;;;51.72;30.35;;;;;;;-149.70;100.00;76857.53;5017756;28;20042;-66
2023/10/19 06:23:56;;;;;;;54.42;29.85;;;;;;;-149.70;100.00;76861.59;5017564;28;20034;-66
2023/10/19 06:26:23;;;;;;;55.97;32.08;;;;;;;-149.70;100.00;76871.78;5017690;28;20054;-66
2023/10/19 06:28:50;;;;;;;61.83;32.05;;;;;;;-149.70;100.00;76867.69;5000755;28;20034;-64
2023/10/19 06:31:17;;;;;;;62.10;31.52;;;;;;;-149.70;100.00;76867.69;5017317;28;20151;-65
2023/10/19 06:33:44;;;;;;;55.42;31.60;;;;;;;-149.70;100.00;76857.53;5018585;28;20062;-67
2023/10/19 06:36:10;;;;;;;70.03;32.50;;;;;;;-149.70;100.00;76857.53;5017509;28;20030;-66
2023/10/19 06:38:37;;;;;;;66.95;33.22;;;;;;;-149.70;100.00;76855.50;5000715;28;20038;-65
2023/10/19 06:41:11;;;;;;;59.50;33.38;;;;;;;-149.70;100.00;76851.44;5017362;28;20057;-65
2023/10/19 06:43:39;;;;;;;66.35;32.72;;;;;;;-149.70;100.00;76847.38;5017221;28;20074;-66
2023/10/19 06:46:06;;;;;;;62.65;33.15;;;;;;;-149.70;100.00;76839.22;5006320;28;20034;-65
2023/10/19 06:48:33;;;;;;;54.22;32.72;;;;;;;-149.70;100.00;76839.22;5000932;28;20034;-65
2023/10/19 06:51:00;;;;;;;62.47;33.88;;;;;;;-149.70;100.00;76841.25;5017749;28;20030;-67
2023/10/19 06:53:26;;;;;;;62.58;33.60;;;;;;;-149.70;100.00;76831.09;5017921;28;20034;-66
2023/10/19 06:55:54;;;;;;;54.47;30.05;;;;;;;-149.70;100.00;76841.25;5017667;28;20026;-66
2023/10/19 06:58:21;;;;;;;61.38;33.40;;;;;;;-149.70;100.00;76827.03;5017860;28;20094;-67
2023/10/19 07:00:56;;;;;;;58.53;32.42;;;;;;;-149.70;100.00;76827.03;5017901;28;20054;-65
2023/10/19 07:03:23;;;;;;;61.80;32.13;;;;;;;-149.70;100.00;76814.81;5017639;28;20062;-67
2023/10/19 07:05:53;;;;;;;61.88;33.85;;;;;;;-149.70;100.00;76810.75;5017524;28;20038;-66
2023/10/19 07:08:21;;;;;;;56.78;32.08;;;;;;;-149.70;100.00;76804.66;5017699;28;20045;-66
2023/10/19 07:10:49;;;;;;;59.90;32.72;;;;;;;-149.70;100.00;76798.56;5017750;28;20106;-66
2023/10/19 07:13:16;;;;;;;63.17;32.47;;;;;;;-149.70;100.00;76804.66;5017010;28;20046;-67
2023/10/19 07:15:48;;;;;;;63.58;35.72;;;;;;;-149.70;100.00;76784.31;5018049;28;20026;-67
2023/10/19 07:18:15;;;;;;;69.32;38.63;;;;;;;-149.70;100.00;76784.31;5016290;28;20050;-67
2023/10/19 07:20:43;;;;;;;58.45;33.58;;;;;;;-149.70;100.00;76792.47;5018044;28;20034;-66
2023/10/19 07:23:18;;;;;;;61.00;33.47;;;;;;;-149.70;100.00;76796.53;5017059;28;20036;-67
2023/10/19 07:25:47;;;;;;;66.15;36.30;;;;;;;-149.70;100.00;76788.41;5016619;28;20143;-67
2023/10/19 07:28:15;;;;;;;62.17;33.17;;;;;;;-149.70;100.00;76778.22;5017502;28;20030;-68
2023/10/19 07:30:43;;;;;;;60.88;32.78;;;;;;;-149.70;100.00;76770.09;5017797;28;20073;-67
2023/10/19 07:33:10;;;;;;;53.97;31.60;;;;;;;-149.70;100.00;76761.97;5017444;28;20022;-68
2023/10/19 07:35:38;;;;;;;53.17;31.15;;;;;;;-149.70;100.00;76774.16;5017689;28;20053;-67
2023/10/19 07:38:07;;;;;;;59.28;30.35;;;;;;;-149.70;100.00;76761.97;5026164;28;20080;-67
2023/10/19 07:40:35;;;;;;;56.88;30.77;;;;;;;-149.70;100.00;76759.94;5036661;28;20058;-69
2023/10/19 07:43:03;;;;;;;57.38;31.60;;;;;;;-149.70;100.00;76755.84;5036289;28;20025;-67
2023/10/19 07:45:34;;;;;;;49.70;29.48;;;;;;;-149.70;100.00;76737.56;5036557;28;20041;-68
2023/10/19 07:48:06;;;;;;;59.35;30.55;;;;;;;-149.70;100.00;76731.47;5036382;28;20041;-68
2023/10/19 07:50:34;;;;;;;59.85;30.25;;;;;;;-149.70;100.00;76713.16;5036535;28;20057;-67
2023/10/19 07:53:02;;;;;;;61.13;30.42;;;;;;;-149.70;100.00;76719.25;5036592;28;20049;-67
2023/10/19 07:55:31;;;;;;;53.45;29.73;;;;;;;-149.70;100.00;76709.09;5037081;28;20049;-67
2023/10/19 07:58:03;;;;;;;59.60;31.50;;;;;;;-149.70;100.00;76694.84;5036007;28;20072;-67
2023/10/19 08:00:30;;;;;;;;;;;;;;;-149.70;100.00;76686.72;5036709;28;20093;-68
2023/10/19 08:02:58;;;;;;;47.97;27.60;;;;;;;-149.70;100.00;76705.03;5036416;28;19909;-68
2023/10/19 08:05:26;;;;;;;47.65;28.40;;;;;;;-149.70;100.00;76698.91;5036502;28;20097;-68
2023/10/19 08:07:53;;;;;;;50.42;26.45;;;;;;;-149.70;100.00;76711.13;5036563;28;20034;-67
2023/10/19 08:10:23;;;;;;;51.45;27.88;;;;;;;-149.70;100.00;76690.78;5036392;28;20034;-67
2023/10/19 08:12:50;;;;;;;49.30;27.45;;;;;;;-149.70;100.00;76680.63;5036381;28;20060;-67
2023/10/19 08:15:17;;;;;;;50.53;26.20;;;;;;;-149.70;100.00;76682.66;5035827;28;20045;-68
2023/10/19 08:17:48;;;;;;;48.50;26.35;;;;;;;-149.70;100.00;76690.78;5036813;28;20030;-68
2023/10/19 08:20:24;;;;;;;42.15;25.60;;;;;;;-149.70;100.00;76672.50;5036388;28;20026;-68
2023/10/19 08:22:53;;;;;;;50.15;26.27;;;;;;;-149.70;100.00;76666.38;5035992;28;20042;-67
2023/10/19 08:25:20;;;;;;;48.92;24.70;;;;;;;-149.70;100.00;76670.44;5036060;28;20045;-67
2023/10/19 08:27:49;;;;;;;48.13;25.33;;;;;;;-149.70;100.00;76670.44;5036136;28;20034;-69
2023/10/19 08:30:21;;;;;;;48.58;24.52;;;;;;;-149.70;100.00;76662.31;5035131;28;20054;-67
2023/10/19 08:32:51;;;;;;;47.35;25.70;;;;;;;-149.70;100.00;76656.22;5035925;28;20044;-68
2023/10/19 08:35:26;;;;;;;42.47;23.45;;;;;;;-149.70;100.00;76652.16;5035778;28;20025;-66
2023/10/19 08:37:54;;;;;;;50.17;25.58;;;;;;;-149.70;100.00;76646.06;5035763;28;20034;-68
2023/10/19 08:40:23;;;;;;;47.33;25.15;;;;;;;-149.70;100.00;76646.06;5035551;28;20050;-68
2023/10/19 08:42:51;;;;;;;44.70;25.52;;;;;;;-149.70;100.00;76642.00;5035739;28;20043;-67
2023/10/19 08:45:18;;;;;;;48.13;24.95;;;;;;;-149.70;100.00;76617.59;5035880;28;20026;-68
2023/10/19 08:48:00;;;;;;;46.67;26.85;;;;;;;-149.70;100.00;76611.47;5035786;28;20057;-68
2023/10/19 08:50:29;;;;;;;49.40;26.38;;;;;;;-149.70;100.00;76593.19;5036159;28;20064;-68
2023/10/19 08:53:02;;;;;;;45.03;25.10;;;;;;;-149.70;100.00;76609.44;5036236;28;20081;-67
2023/10/19 08:55:31;;;;;;;44.63;27.10;;;;;;;-149.70;100.00;76613.53;5036376;28;20062;-67
2023/10/19 08:58:15;;;;;;;46.70;25.67;;;;;;;-149.70;100.00;76593.19;5036306;28;20051;-70
2023/10/19 09:00:48;;;;;;;47.60;26.05;;;;;;;-149.70;100.00;76589.13;5036096;28;20026;-68
2023/10/19 09:03:16;;;;;;;47.85;24.77;;;;;;;-149.70;100.00;76583.03;5036021;28;20046;-66
2023/10/19 09:05:46;;;;;;;45.88;24.95;;;;;;;-149.70;100.00;76585.06;5036506;28;20040;-66
2023/10/19 09:08:19;;;;;;;43.67;24.52;;;;;;;-149.70;100.00;76593.19;5036170;28;20030;-68
2023/10/19 09:10:49;;;;;;;45.22;25.08;;;;;;;-149.70;100.00;76572.84;5035706;28;20029;-67
2023/10/19 09:13:18;;;;;;;44.38;24.75;;;;;;;-149.70;100.00;76570.81;5035674;28;20030;-66
2023/10/19 09:15:48;;;;;;;42.63;24.80;;;;;;;-149.70;100.00;76544.38;5035937;28;20026;-66
2023/10/19 09:18:16;;;;;;;49.78;23.20;;;;;;;-149.70;100.00;76560.66;5035999;28;20029;-67
2023/10/19 09:21:07;;;;;;;41.72;24.67;;;;;;;-149.70;100.00;76550.47;5036302;28;20053;-65
2023/10/19 09:23:36;;;;;;;47.17;24.15;;;;;;;-149.70;100.00;76574.88;5035977;28;20033;-65
2023/10/19 09:26:03;;;;;;;43.75;25.02;;;;;;;-149.70;100.00;76548.44;5019047;28;20053;-66
2023/10/19 09:28:33;;;;;;;48.63;24.45;;;;;;;-149.70;100.00;76572.84;5035862;28;20034;-67
2023/10/19 09:31:01;;;;;;;39.60;24.27;;;;;;;-149.70;100.00;76560.66;5035612;28;20026;-66
2023/10/19 09:33:30;;;;;;;43.10;23.77;;;;;;;-149.70;100.00;76566.75;5035923;28;20065;-66
2023/10/19 09:36:00;;;;;;;48.25;24.60;;;;;;;-149.70;100.00;76558.63;5035531;28;20033;-67
2023/10/19 09:38:27;;;;;;;46.10;25.20;;;;;;;-149.70;100.00;76550.47;5023193;28;20058;-66
2023/10/19 09:40:55;;;;;;;45.08;25.58;;;;;;;-149.70;100.00;76556.59;5015931;28;20056;-67
2023/10/19 09:43:33;;;;;;;45.67;24.95;;;;;;;-149.70;100.00;76552.50;5019677;28;20073;-66
2023/10/19 09:46:05;;;;;;;42.75;24.95;;;;;;;-149.70;100.00;76550.47;5019874;28;20030;-67
2023/10/19 09:48:39;;;;;;;42.50;25.75;;;;;;;-149.70;100.00;76560.66;5019559;28;20057;-66
2023/10/19 09:51:08;;;;;;;53.95;27.33;;;;;;;-149.70;100.00;76560.66;5019830;28;20062;-68
2023/10/19 09:53:42;;;;;;;43.55;25.20;;;;;;;-149.70;100.00;76548.44;5020099;28;20089;-68
2023/10/19 09:56:19;;;;;;;49.53;26.92;;;;;;;-149.70;100.00;76546.41;5019856;28;20062;-68
2023/10/19 09:58:49;;;;;;;50.47;24.92;;;;;;;-149.70;100.00;76532.19;5019889;28;20022;-68
2023/10/19 10:01:16;;;;;;;58.00;29.38;;;;;;;-149.70;100.00;76544.38;5019783;28;20034;-68
2023/10/19 10:03:48;;;;;;;45.08;26.48;;;;;;;-149.70;100.00;76532.19;5019863;28;20156;-68
2023/10/19 10:06:20;;;;;;;41.67;24.75;;;;;;;-149.70;100.00;76530.16;5020040;28;20040;-67
2023/10/19 10:08:48;;;;;;;50.67;27.75;;;;;;;-149.70;100.00;76513.88;5019472;28;20081;-68
2023/10/19 10:11:20;;;;;;;46.72;26.15;;;;;;;-149.70;100.00;76538.28;5019953;28;20038;-68
2023/10/19 10:13:50;;;;;;;46.35;26.60;;;;;;;-149.70;100.00;76526.09;5018433;28;20053;-67
2023/10/19 10:16:19;;;;;;;43.55;25.95;;;;;;;-149.70;100.00;76530.16;5018592;28;20087;-66
2023/10/19 10:18:48;;;;;;;46.13;27.45;;;;;;;-149.70;100.00;76526.09;5018379;28;20030;-67
2023/10/19 10:21:23;;;;;;;51.78;29.30;;;;;;;-149.70;100.00;76526.09;5019177;28;20336;-68
2023/10/19 10:23:59;;;;;;;48.90;28.77;;;;;;;-149.70;100.00;76534.22;5018692;28;20054;-68
2023/10/19 10:26:35;;;;;;;49.85;28.98;;;;;;;-149.70;100.00;76538.28;5018562;28;20045;-67
2023/10/19 10:29:26;;;;;;;53.85;30.85;;;;;;;-149.70;100.00;76544.38;5018734;28;20042;-67
2023/10/19 10:31:53;;;;;;;49.83;30.60;;;;;;;-149.70;100.00;76540.31;5007401;28;20023;-68
2023/10/19 10:34:42;;;;;;;54.33;31.23;;;;;;;-149.70;100.00;76532.19;5018558;28;20053;-68
2023/10/19 10:37:13;;;;;;;53.33;31.33;;;;;;;-149.70;100.00;76542.34;5020556;28;20082;-68
2023/10/19 10:39:44;;;;;;;58.10;32.47;;;;;;;-149.70;100.00;76546.41;5038438;28;20025;-69
2023/10/19 10:42:12;;;;;;;58.28;32.38;;;;;;;-149.70;100.00;76546.41;5038669;28;20025;-68
2023/10/19 10:44:40;;;;;;;58.75;34.20;;;;;;;-149.70;100.00;76534.22;5038314;28;20030;-69
2023/10/19 10:47:08;;;;;;;58.42;33.95;;;;;;;-149.70;100.00;76524.06;5038247;28;20025;-69
2023/10/19 10:49:48;;;;;;;63.35;35.53;;;;;;;-149.70;100.00;76532.19;5037951;28;20056;-68
2023/10/19 10:52:25;;;;;;;58.95;33.70;;;;;;;-149.70;100.00;76540.31;5038325;28;20030;-69
2023/10/19 10:54:52;;;;;;;62.95;35.47;;;;;;;-149.70;100.00;76540.31;5036680;28;20049;-69
2023/10/19 10:57:20;;;;;;;61.33;35.72;;;;;;;-149.70;100.00;76530.16;5037750;28;20042;-68
2023/10/19 10:59:46;;;;;;;66.65;38.63;;;;;;;-149.70;100.00;76528.13;5038168;28;20030;-68
2023/10/19 11:02:21;;;;;;;66.35;37.75;;;;;;;-149.70;100.00;76519.97;5038576;28;20038;-69
2023/10/19 11:04:48;;;;;;;65.75;36.13;;;;;;;-149.70;100.00;76532.19;5037887;28;20030;-66
2023/10/19 11:07:19;;;;;;;67.53;39.90;;;;;;;-149.70;100.00;76517.94;5038007;28;20149;-68
2023/10/19 11:09:47;;;;;;;75.07;39.92;;;;;;;-149.70;100.00;76522.00;5037968;28;20021;-67
2023/10/19 11:12:15;;;;;;;74.20;39.50;;;;;;;-149.70;100.00;76522.00;5038328;28;20030;-69
2023/10/19 11:14:55;;;;;;;73.72;40.90;;;;;;;-149.70;100.00;76536.25;5037672;28;20021;-68
2023/10/19 11:17:30;;;;;;;78.05;41.80;;;;;;;-149.70;100.00;76532.19;5037426;28;20052;-66
2023/10/19 11:19:58;;;;;;;68.65;39.55;;;;;;;-149.70;100.00;76515.91;5037392;28;20026;-69
2023/10/19 11:22:27;;;;;;;68.82;38.13;;;;;;;-149.70;100.00;76513.88;5029144;28;20037;-69
2023/10/19 11:24:54;;;;;;;66.85;39.67;;;;;;;-149.70;100.00;76507.78;5037681;28;20029;-68
2023/10/19 11:27:28;;;;;;;64.97;39.03;;;;;;;-149.70;100.00;76507.78;5037340;28;20030;-69
2023/10/19 11:30:04;;;;;;;72.70;40.33;;;;;;;-149.70;100.00;76511.84;5037333;28;20036;-68